Time;durP1;ratioP1;P1;durP2;ratioP2;P2;SDS_P1;SDS_P2;PMS_P1;PMS_P2;Temp;Humidity;BMP_temperature;BMP_pressure;BME280_temperature;BME280_humidity;BME280_pressure;Samples;Min_cycle;Max_cycle;Signal;HPM_P1;HPM_P2
2021/05/23 00:01:32;;;;;;;0.90;0.90;;;11.60;97.30;;;;;;5036009;28;20443;-82
2021/05/23 00:03:58;;;;;;;1.50;0.60;;;11.60;97.40;;;;;;5036265;28;20765;-82
2021/05/23 00:06:26;;;;;;;0.90;0.57;;;11.60;97.90;;;;;;5035937;28;20449;-82
2021/05/23 00:08:52;;;;;;;0.60;0.60;;;11.60;98.20;;;;;;5035781;28;20516;-82
2021/05/23 00:11:18;;;;;;;1.27;0.50;;;11.60;98.50;;;;;;5035812;28;20450;-82
2021/05/23 00:13:46;;;;;;;0.80;0.60;;;11.50;98.90;;;;;;5035865;28;20427;-82
2021/05/23 00:16:16;;;;;;;1.80;0.50;;;11.50;98.90;;;;;;5035456;28;20968;-82
2021/05/23 00:18:45;;;;;;;1.53;0.70;;;11.50;99.60;;;;;;5035746;28;20458;-82
2021/05/23 00:21:13;;;;;;;0.90;0.70;;;11.50;99.50;;;;;;5035684;28;20546;-82
2021/05/23 00:23:40;;;;;;;1.10;0.60;;;11.50;99.90;;;;;;5035638;28;20458;-82
2021/05/23 00:26:06;;;;;;;0.70;0.60;;;11.50;99.90;;;;;;5035593;28;20454;-81
2021/05/23 00:28:35;;;;;;;0.50;0.50;;;11.40;99.90;;;;;;5035597;28;20451;-82
2021/05/23 00:31:02;;;;;;;0.53;0.53;;;11.40;99.90;;;;;;5035382;28;20481;-82
2021/05/23 00:33:28;;;;;;;1.63;0.70;;;11.40;99.90;;;;;;5035017;28;20483;-82
2021/05/23 00:35:54;;;;;;;1.73;0.60;;;11.40;99.90;;;;;;5035368;28;20459;-82
2021/05/23 00:38:20;;;;;;;1.00;0.60;;;11.40;99.90;;;;;;5035091;28;20435;-82
2021/05/23 00:40:47;;;;;;;2.20;0.60;;;11.40;99.90;;;;;;5035154;28;20986;-82
2021/05/23 00:43:16;;;;;;;0.50;0.50;;;11.40;99.90;;;;;;5035047;28;20491;-81
2021/05/23 00:45:42;;;;;;;0.50;0.50;;;11.40;99.90;;;;;;5035211;28;20454;-82
2021/05/23 00:48:09;;;;;;;0.60;0.60;;;11.40;99.90;;;;;;5034411;28;20457;-82
2021/05/23 00:50:36;;;;;;;0.60;0.50;;;11.40;99.90;;;;;;5034842;28;20478;-82
2021/05/23 00:53:03;;;;;;;1.40;0.57;;;11.40;99.90;;;;;;5034998;28;20483;-82
2021/05/23 00:55:30;;;;;;;1.17;0.60;;;11.40;99.90;;;;;;5034778;28;20454;-82
2021/05/23 00:57:57;;;;;;;0.83;0.60;;;11.40;99.90;;;;;;5034910;28;20458;-82
2021/05/23 01:01:03;;;;;;;0.50;0.50;;;11.40;99.90;;;;;;5034603;28;20490;-82
2021/05/23 01:03:57;;;;;;;1.33;0.60;;;11.40;99.90;;;;;;5034605;28;20427;-82
2021/05/23 01:06:24;;;;;;;0.87;0.50;;;11.40;99.90;;;;;;5027926;28;20442;-82
2021/05/23 01:08:51;;;;;;;0.90;0.60;;;11.40;99.90;;;;;;5034730;28;20464;-82
2021/05/23 01:11:53;;;;;;;0.80;0.50;;;11.50;99.90;;;;;;5034655;28;20451;-82
2021/05/23 01:14:38;;;;;;;0.80;0.70;;;11.40;99.90;;;;;;5010655;28;20474;-82
2021/05/23 01:17:05;;;;;;;0.87;0.60;;;11.40;99.90;;;;;;5034457;28;20442;-82
2021/05/23 01:19:45;;;;;;;0.70;0.60;;;11.40;99.90;;;;;;5034470;28;20467;-82
2021/05/23 01:22:14;;;;;;;0.50;0.50;;;11.40;99.90;;;;;;5034623;28;20420;-82
2021/05/23 01:24:43;;;;;;;0.60;0.60;;;11.40;99.90;;;;;;5034166;28;20462;-82
2021/05/23 01:27:12;;;;;;;0.80;0.70;;;11.30;99.90;;;;;;5034430;28;20439;-82
2021/05/23 01:29:40;;;;;;;0.50;0.50;;;11.30;99.90;;;;;;5034299;28;20455;-82
2021/05/23 01:32:08;;;;;;;1.07;0.60;;;11.30;99.90;;;;;;5034054;28;20479;-82
2021/05/23 01:34:35;;;;;;;0.60;0.50;;;11.30;99.90;;;;;;5034340;28;20865;-82
2021/05/23 01:37:07;;;;;;;0.50;0.50;;;11.20;99.90;;;;;;5034563;28;20435;-82
2021/05/23 01:39:33;;;;;;;0.60;0.50;;;11.20;99.90;;;;;;5034177;28;20521;-82
2021/05/23 01:42:00;;;;;;;0.50;0.50;;;11.30;99.90;;;;;;5034221;28;20440;-82
2021/05/23 01:44:27;;;;;;;0.60;0.60;;;11.30;99.90;;;;;;5033838;28;21016;-82
2021/05/23 01:46:54;;;;;;;1.90;0.50;;;11.30;99.90;;;;;;5034130;28;20450;-82
2021/05/23 01:49:20;;;;;;;1.33;0.67;;;11.30;99.90;;;;;;5033653;28;21000;-82
2021/05/23 01:51:46;;;;;;;1.63;0.63;;;11.20;99.90;;;;;;5034651;28;20451;-81
2021/05/23 01:54:12;;;;;;;0.70;0.60;;;11.20;99.90;;;;;;5033941;28;20517;-82
2021/05/23 01:56:39;;;;;;;0.97;0.60;;;11.20;99.90;;;;;;5033852;28;20450;-82
2021/05/23 01:59:05;;;;;;;0.50;0.50;;;11.20;99.90;;;;;;5033484;28;20439;-82
2021/05/23 02:01:32;;;;;;;2.70;0.60;;;11.20;99.90;;;;;;5033335;28;20965;-82
2021/05/23 02:04:01;;;;;;;0.83;0.70;;;11.20;99.90;;;;;;5033798;28;20516;-82
2021/05/23 02:06:27;;;;;;;0.60;0.50;;;11.20;99.90;;;;;;5033622;28;20821;-82
2021/05/23 02:08:53;;;;;;;0.70;0.60;;;11.20;99.90;;;;;;5033299;28;20450;-82
2021/05/23 02:11:20;;;;;;;0.53;0.50;;;11.10;99.90;;;;;;5033484;28;20864;-82
2021/05/23 02:13:51;;;;;;;1.10;0.70;;;11.10;99.90;;;;;;5033518;28;20486;-81
2021/05/23 02:16:18;;;;;;;0.70;0.70;;;11.10;99.90;;;;;;5033626;28;20416;-82
2021/05/23 02:18:45;;;;;;;1.03;0.50;;;11.10;99.90;;;;;;5033293;28;20439;-82
2021/05/23 02:21:14;;;;;;;1.20;0.60;;;11.00;99.90;;;;;;5033502;28;20554;-80
2021/05/23 02:23:48;;;;;;;2.67;0.60;;;11.00;99.90;;;;;;5033504;28;20443;-79
2021/05/23 02:26:14;;;;;;;0.50;0.50;;;10.90;99.90;;;;;;5033258;28;20929;-80
2021/05/23 02:28:41;;;;;;;0.43;0.40;;;10.60;99.90;;;;;;5033457;28;20454;-80
2021/05/23 02:31:07;;;;;;;1.10;0.40;;;10.40;99.90;;;;;;5032961;28;20470;-80
2021/05/23 02:33:33;;;;;;;0.93;0.50;;;10.10;99.90;;;;;;5032930;28;21035;-81
2021/05/23 02:36:00;;;;;;;0.47;0.47;;;9.70;99.90;;;;;;5033094;28;20435;-81
2021/05/23 02:38:27;;;;;;;1.47;0.50;;;9.60;99.90;;;;;;5032946;28;20869;-80
2021/05/23 02:40:54;;;;;;;1.37;0.70;;;9.40;99.90;;;;;;5033214;28;20485;-81
2021/05/23 02:43:21;;;;;;;0.57;0.40;;;9.30;99.90;;;;;;5033086;28;20476;-81
2021/05/23 02:45:47;;;;;;;0.60;0.30;;;9.20;99.90;;;;;;5033259;28;20501;-81
2021/05/23 02:48:14;;;;;;;0.70;0.40;;;9.20;99.90;;;;;;5032977;28;20969;-81
2021/05/23 02:50:43;;;;;;;1.13;0.47;;;9.20;99.90;;;;;;5033099;28;20497;-81
2021/05/23 02:53:10;;;;;;;0.50;0.47;;;9.20;99.90;;;;;;5032821;28;20565;-81
2021/05/23 02:55:38;;;;;;;0.97;0.40;;;9.10;99.90;;;;;;5033136;28;20450;-81
2021/05/23 02:58:05;;;;;;;0.60;0.40;;;9.10;99.90;;;;;;5033121;28;20458;-81
2021/05/23 03:00:32;;;;;;;0.40;0.40;;;9.00;99.90;;;;;;5032707;28;20989;-81
2021/05/23 03:02:58;;;;;;;0.70;0.40;;;9.00;99.90;;;;;;5033294;28;20454;-81
2021/05/23 03:05:25;;;;;;;0.50;0.40;;;9.00;99.90;;;;;;5032729;28;20962;-81
2021/05/23 03:07:53;;;;;;;0.73;0.50;;;8.90;99.90;;;;;;5033030;28;20459;-81
2021/05/23 03:10:22;;;;;;;0.73;0.50;;;8.80;99.90;;;;;;5032727;28;20974;-81
2021/05/23 03:12:49;;;;;;;0.40;0.40;;;8.90;99.90;;;;;;5035306;28;20490;-81
2021/05/23 03:15:22;;;;;;;0.50;0.40;;;8.90;99.90;;;;;;5036591;28;20972;-81
2021/05/23 03:17:48;;;;;;;0.80;0.40;;;8.90;99.90;;;;;;5036932;28;20427;-81
2021/05/23 03:20:17;;;;;;;0.40;0.40;;;8.80;99.90;;;;;;5036474;28;21051;-81
2021/05/23 03:22:44;;;;;;;0.57;0.40;;;8.80;99.90;;;;;;5036833;28;20439;-81
2021/05/23 03:25:13;;;;;;;0.40;0.40;;;8.70;99.90;;;;;;5036727;28;20446;-81
2021/05/23 03:27:40;;;;;;;0.70;0.43;;;8.70;99.90;;;;;;5036689;28;20451;-81
2021/05/23 03:30:09;;;;;;;0.40;0.40;;;8.70;99.90;;;;;;5036653;28;20469;-82
2021/05/23 03:32:36;;;;;;;0.43;0.40;;;8.70;99.90;;;;;;5036469;28;20482;-82
2021/05/23 03:35:04;;;;;;;0.40;0.40;;;8.70;99.90;;;;;;5036545;28;20451;-81
2021/05/23 03:37:30;;;;;;;0.50;0.47;;;8.70;99.90;;;;;;5037294;28;20505;-82
2021/05/23 03:39:56;;;;;;;1.33;0.50;;;8.70;99.90;;;;;;5036357;28;20532;-82
2021/05/23 03:42:23;;;;;;;0.50;0.40;;;8.70;99.90;;;;;;5036452;28;20457;-82
2021/05/23 03:44:50;;;;;;;0.40;0.30;;;8.70;99.90;;;;;;5036085;28;20486;-82
2021/05/23 03:47:16;;;;;;;1.23;0.50;;;8.60;99.90;;;;;;5036056;28;20443;-82
2021/05/23 03:49:42;;;;;;;1.00;0.40;;;8.60;99.90;;;;;;5035981;28;20458;-82
2021/05/23 03:52:10;;;;;;;1.43;0.50;;;8.60;99.90;;;;;;5036186;28;20490;-82
2021/05/23 03:54:36;;;;;;;0.40;0.40;;;8.60;99.90;;;;;;5035946;28;20468;-82
2021/05/23 03:57:04;;;;;;;0.53;0.40;;;8.60;99.90;;;;;;5035929;28;20442;-82
2021/05/23 03:59:30;;;;;;;0.43;0.40;;;8.70;99.90;;;;;;5035797;28;20459;-82
2021/05/23 04:01:57;;;;;;;1.47;0.60;;;8.70;99.90;;;;;;5036087;28;20446;-82
2021/05/23 04:04:23;;;;;;;0.50;0.50;;;8.70;99.90;;;;;;5035733;28;20439;-82
2021/05/23 04:06:50;;;;;;;0.60;0.60;;;8.70;99.90;;;;;;5035935;28;20458;-85
2021/05/23 04:09:17;;;;;;;0.60;0.50;;;8.70;99.90;;;;;;5035917;28;20475;-83
2021/05/23 04:11:47;;;;;;;0.97;0.50;;;8.70;99.90;;;;;;5035862;28;20965;-82
2021/05/23 04:14:13;;;;;;;0.60;0.50;;;8.80;99.90;;;;;;5035898;28;20810;-83
2021/05/23 04:16:40;;;;;;;0.70;0.50;;;8.80;99.90;;;;;;5035798;28;20470;-82
2021/05/23 04:19:07;;;;;;;3.20;0.50;;;8.80;99.90;;;;;;5035690;28;20521;-82
2021/05/23 04:21:34;;;;;;;0.60;0.50;;;8.80;99.90;;;;;;5035376;28;20454;-82
2021/05/23 04:24:02;;;;;;;0.70;0.57;;;8.80;99.90;;;;;;5035345;28;20819;-82
2021/05/23 04:26:28;;;;;;;0.97;0.50;;;8.80;99.90;;;;;;5035607;28;20446;-83
2021/05/23 04:28:54;;;;;;;0.60;0.60;;;8.80;99.90;;;;;;5035470;28;20450;-83
2021/05/23 04:31:21;;;;;;;0.60;0.60;;;8.90;99.90;;;;;;5035575;28;20447;-82
2021/05/23 04:33:47;;;;;;;1.03;0.53;;;9.00;99.90;;;;;;5035077;28;20482;-83
2021/05/23 04:36:14;;;;;;;1.43;0.50;;;9.00;99.90;;;;;;5035443;28;20458;-82
2021/05/23 04:38:40;;;;;;;0.70;0.70;;;9.00;99.90;;;;;;5035570;28;20458;-83
2021/05/23 04:41:06;;;;;;;0.87;0.57;;;9.10;99.90;;;;;;5035545;28;20521;-82
2021/05/23 04:43:32;;;;;;;0.50;0.50;;;9.10;99.90;;;;;;5035141;28;21010;-82
2021/05/23 04:45:59;;;;;;;0.40;0.40;;;9.20;99.90;;;;;;5035295;28;20512;-83
2021/05/23 04:48:25;;;;;;;1.03;0.67;;;9.10;99.90;;;;;;5035182;28;20450;-82
2021/05/23 04:50:51;;;;;;;1.53;0.50;;;9.20;99.90;;;;;;5035071;28;20470;-83
2021/05/23 04:53:18;;;;;;;0.77;0.50;;;9.30;99.90;;;;;;5034998;28;20479;-83
2021/05/23 04:55:44;;;;;;;0.40;0.40;;;9.30;99.90;;;;;;5035081;28;20521;-83
2021/05/23 04:58:11;;;;;;;0.60;0.60;;;9.30;99.90;;;;;;5035020;28;20454;-82
2021/05/23 05:00:37;;;;;;;0.60;0.50;;;9.30;99.90;;;;;;5034861;28;20467;-83
2021/05/23 05:03:03;;;;;;;0.80;0.60;;;9.40;99.90;;;;;;5034921;28;20469;-83
2021/05/23 05:05:29;;;;;;;0.60;0.53;;;9.40;99.90;;;;;;5034555;28;20959;-83
2021/05/23 05:07:56;;;;;;;1.10;0.50;;;9.40;99.90;;;;;;5034828;28;20447;-82
2021/05/23 05:10:23;;;;;;;2.43;0.50;;;9.50;99.90;;;;;;5034700;28;20475;-83
2021/05/23 05:12:49;;;;;;;1.63;0.67;;;9.50;99.90;;;;;;5034714;28;20486;-82
2021/05/23 05:15:15;;;;;;;0.50;0.50;;;9.60;99.90;;;;;;5034465;28;20446;-82
2021/05/23 05:17:42;;;;;;;1.53;0.60;;;9.60;99.90;;;;;;5034310;28;20485;-82
2021/05/23 05:20:10;;;;;;;0.93;0.50;;;9.60;99.90;;;;;;5034493;28;20466;-82
2021/05/23 05:22:36;;;;;;;0.50;0.50;;;9.70;99.90;;;;;;5034484;28;20444;-83
2021/05/23 05:25:03;;;;;;;0.40;0.40;;;9.80;99.90;;;;;;5034435;28;20455;-82
2021/05/23 05:27:30;;;;;;;2.00;0.60;;;9.70;99.90;;;;;;5034467;28;20451;-81
2021/05/23 05:29:56;;;;;;;0.50;0.50;;;9.70;99.90;;;;;;5034345;28;20474;-82
2021/05/23 05:32:23;;;;;;;0.63;0.63;;;9.80;99.90;;;;;;5033998;28;20477;-82
2021/05/23 05:34:49;;;;;;;0.97;0.50;;;9.80;99.90;;;;;;5033850;28;20454;-82
2021/05/23 05:37:15;;;;;;;0.50;0.50;;;9.80;99.90;;;;;;5034285;28;20446;-83
2021/05/23 05:39:43;;;;;;;1.17;0.53;;;9.80;99.90;;;;;;5034181;28;20497;-82
2021/05/23 05:42:09;;;;;;;1.00;0.50;;;9.70;99.90;;;;;;5034159;28;20446;-83
2021/05/23 05:44:36;;;;;;;0.60;0.60;;;9.60;99.90;;;;;;5033749;28;20474;-82
2021/05/23 05:47:02;;;;;;;1.43;0.50;;;9.60;99.90;;;;;;5034074;28;20462;-82
2021/05/23 05:49:29;;;;;;;0.53;0.53;;;9.60;99.90;;;;;;5033966;28;20474;-82
2021/05/23 05:51:55;;;;;;;2.20;0.87;;;9.60;99.90;;;;;;5033938;28;20442;-82
2021/05/23 05:54:21;;;;;;;0.77;0.77;;;9.60;99.90;;;;;;5033607;28;20500;-82
2021/05/23 05:56:47;;;;;;;1.23;0.50;;;9.70;99.90;;;;;;5033839;28;20454;-82
2021/05/23 05:59:13;;;;;;;0.80;0.70;;;9.90;99.90;;;;;;5033603;28;21006;-82
2021/05/23 06:01:42;;;;;;;1.10;0.70;;;9.90;99.90;;;;;;5033837;28;20439;-81
2021/05/23 06:04:08;;;;;;;0.70;0.70;;;10.00;99.90;;;;;;5033776;28;20927;-83
2021/05/23 06:06:34;;;;;;;0.50;0.50;;;10.00;99.90;;;;;;5033770;28;20463;-82
2021/05/23 06:09:01;;;;;;;0.50;0.43;;;10.00;99.90;;;;;;5033628;28;20454;-83
2021/05/23 06:11:27;;;;;;;1.80;0.50;;;10.00;99.90;;;;;;5033923;28;20457;-83
2021/05/23 06:13:53;;;;;;;0.53;0.53;;;10.00;99.90;;;;;;5033811;28;20505;-83
2021/05/23 06:16:19;;;;;;;0.70;0.40;;;10.00;99.90;;;;;;5033522;28;20453;-83
2021/05/23 06:18:46;;;;;;;0.60;0.60;;;10.00;99.90;;;;;;5033506;28;20470;-83
2021/05/23 06:21:12;;;;;;;0.50;0.47;;;10.10;99.90;;;;;;5033489;28;20489;-83
2021/05/23 06:23:39;;;;;;;1.00;0.50;;;10.10;99.90;;;;;;5033483;28;20497;-83
2021/05/23 06:26:05;;;;;;;0.87;0.40;;;10.10;99.90;;;;;;5033432;28;20451;-83
2021/05/23 06:28:31;;;;;;;0.80;0.50;;;10.30;99.90;;;;;;5033282;28;20444;-83
2021/05/23 06:30:58;;;;;;;1.23;1.13;;;10.30;99.90;;;;;;5033434;28;20477;-83
2021/05/23 06:33:24;;;;;;;1.10;0.40;;;10.40;99.90;;;;;;5033398;28;20470;-83
2021/05/23 06:35:51;;;;;;;1.30;0.40;;;10.50;99.90;;;;;;5033497;28;20431;-83
2021/05/23 06:38:17;;;;;;;0.47;0.47;;;10.50;99.90;;;;;;5033163;28;20945;-83
2021/05/23 06:40:43;;;;;;;0.70;0.60;;;10.50;99.90;;;;;;5033406;28;20451;-83
2021/05/23 06:43:10;;;;;;;3.13;0.60;;;10.70;99.90;;;;;;5033209;28;20883;-83
2021/05/23 06:45:36;;;;;;;0.40;0.40;;;11.00;99.90;;;;;;5033431;28;20439;-83
2021/05/23 06:48:02;;;;;;;0.50;0.40;;;11.70;99.90;;;;;;5037410;28;20430;-84
2021/05/23 06:50:28;;;;;;;1.13;0.40;;;12.50;99.90;;;;;;5037628;28;20876;-83
2021/05/23 06:52:55;;;;;;;0.40;0.40;;;13.40;99.90;;;;;;5037308;28;20517;-83
2021/05/23 06:55:22;;;;;;;0.60;0.40;;;14.30;99.90;;;;;;5037035;28;20446;-83
2021/05/23 06:57:48;;;;;;;0.47;0.40;;;15.10;99.90;;;;;;5037012;28;20961;-83
2021/05/23 07:00:16;;;;;;;0.77;0.50;;;16.30;99.90;;;;;;5037173;28;20466;-83
2021/05/23 07:02:44;;;;;;;0.50;0.40;;;17.60;99.90;;;;;;5037246;28;20470;-84
2021/05/23 07:05:11;;;;;;;0.90;0.50;;;18.80;99.90;;;;;;5036948;28;20465;-82
2021/05/23 07:07:37;;;;;;;1.20;0.40;;;20.00;99.90;;;;;;5036849;28;20477;-83
2021/05/23 07:10:05;;;;;;;1.02;0.50;;;21.10;98.80;;;;;;5036807;28;20227;-83
2021/05/23 07:12:31;;;;;;;0.50;0.45;;;21.40;94.60;;;;;;5037641;28;20242;-84
2021/05/23 07:14:58;;;;;;;0.60;0.40;;;21.40;90.40;;;;;;5036709;28;20207;-83
2021/05/23 07:17:24;;;;;;;0.50;0.40;;;21.50;87.10;;;;;;5036943;28;20199;-82
2021/05/23 07:19:50;;;;;;;0.40;0.40;;;20.80;87.50;;;;;;5036554;28;20227;-83
2021/05/23 07:22:16;;;;;;;0.50;0.50;;;19.50;90.70;;;;;;5036802;28;20268;-83
2021/05/23 07:24:43;;;;;;;0.40;0.40;;;18.10;93.40;;;;;;5036820;28;20207;-83
2021/05/23 07:27:10;;;;;;;0.40;0.40;;;16.80;96.30;;;;;;5036752;28;20449;-82
2021/05/23 07:29:36;;;;;;;0.60;0.50;;;15.80;99.90;;;;;;5036678;28;20520;-82
2021/05/23 07:32:02;;;;;;;0.60;0.50;;;15.00;99.90;;;;;;5036591;28;20513;-81
2021/05/23 07:34:29;;;;;;;0.70;0.50;;;14.20;99.90;;;;;;5036581;28;20451;-81
2021/05/23 07:36:55;;;;;;;1.17;0.50;;;13.50;99.90;;;;;;5036572;28;20446;-82
2021/05/23 07:39:22;;;;;;;0.63;0.57;;;12.90;99.90;;;;;;5036517;28;20911;-80
2021/05/23 07:41:48;;;;;;;1.60;0.50;;;12.50;99.90;;;;;;5036485;28;20450;-80
2021/05/23 07:44:17;;;;;;;1.00;0.60;;;12.10;99.90;;;;;;5036193;28;20505;-80
2021/05/23 07:46:43;;;;;;;0.63;0.63;;;11.80;99.90;;;;;;5036127;28;20443;-81
2021/05/23 07:49:10;;;;;;;0.40;0.40;;;12.60;99.90;;;;;;5036285;28;20461;-81
2021/05/23 07:51:36;;;;;;;0.40;0.40;;;14.50;99.90;;;;;;5036298;28;20501;-81
2021/05/23 07:54:03;;;;;;;0.60;0.50;;;16.70;99.90;;;;;;5036180;28;20486;-81
2021/05/23 07:56:29;;;;;;;1.20;0.43;;;17.70;99.90;;;;;;5036203;28;20458;-81
2021/05/23 07:58:55;;;;;;;0.60;0.50;;;17.60;99.90;;;;;;5035514;28;20854;-81
2021/05/23 08:01:22;;;;;;;1.57;0.40;;;18.50;99.90;;;;;;5036070;28;20447;-82
2021/05/23 08:03:49;;;;;;;0.50;0.50;;;19.90;99.90;;;;;;5036339;28;20446;-82
2021/05/23 08:06:16;;;;;;;0.50;0.40;;;21.50;99.90;;;;;;5035886;28;20462;-82
2021/05/23 08:08:42;;;;;;;0.60;0.40;;;22.60;97.70;;;;;;5036029;28;20298;-82
2021/05/23 08:11:08;;;;;;;0.90;0.40;;;23.20;91.20;;;;;;5035696;28;20227;-82
2021/05/23 08:13:35;;;;;;;0.45;0.45;;;23.10;89.30;;;;;;5035870;28;20223;-83
2021/05/23 08:16:02;;;;;;;1.58;0.50;;;23.20;81.80;;;;;;5035894;28;20199;-82
2021/05/23 08:18:29;;;;;;;0.47;0.40;;;23.10;82.00;;;;;;5035801;28;20225;-82
2021/05/23 08:20:56;;;;;;;0.40;0.40;;;23.10;81.60;;;;;;5035726;28;20223;-82
2021/05/23 08:23:24;;;;;;;1.67;0.50;;;23.10;79.30;;;;;;5035408;28;20675;-82
2021/05/23 08:25:50;;;;;;;0.70;0.60;;;23.10;77.30;;;;;;5035752;28;20258;-83
2021/05/23 08:28:16;;;;;;;0.90;0.50;;;23.10;72.60;;;;;;5035674;28;20204;-83
2021/05/23 08:30:43;;;;;;;2.15;0.50;;;22.80;70.00;;;;;;5035502;28;20223;-83
2021/05/23 08:33:10;;;;;;;0.70;0.50;;;22.30;69.40;;;;;;5035206;28;20226;-82
2021/05/23 08:35:38;;;;;;;0.60;0.60;;;21.30;73.30;;;;;;5035540;28;20314;-82
2021/05/23 08:38:04;;;;;;;0.60;0.50;;;20.70;76.80;;;;;;5035525;28;20209;-82
2021/05/23 08:40:30;;;;;;;0.70;0.50;;;20.80;77.00;;;;;;5035349;28;20310;-83
2021/05/23 08:42:57;;;;;;;1.13;0.50;;;21.00;74.10;;;;;;5035155;28;20203;-83
2021/05/23 08:45:23;;;;;;;0.40;0.40;;;21.20;75.60;;;;;;5035381;28;20192;-82
2021/05/23 08:47:51;;;;;;;0.98;0.52;;;21.90;77.20;;;;;;5035304;28;20207;-82
2021/05/23 08:50:18;;;;;;;1.48;0.50;;;22.70;73.40;;;;;;5035176;28;20223;-82
2021/05/23 08:52:45;;;;;;;0.50;0.50;;;23.10;67.20;;;;;;5035149;28;20223;-82
2021/05/23 08:55:15;;;;;;;0.95;0.50;;;23.20;64.60;;;;;;5034819;28;20701;-82
2021/05/23 08:57:41;;;;;;;1.13;0.40;;;23.10;64.90;;;;;;5035137;28;20234;-82
2021/05/23 09:00:10;;;;;;;0.77;0.50;;;22.70;67.20;;;;;;5035030;28;20289;-81
2021/05/23 09:02:36;;;;;;;1.20;0.60;;;21.90;66.30;;;;;;5035020;28;20199;-83
2021/05/23 09:05:03;;;;;;;1.17;0.40;;;21.00;65.80;;;;;;5034687;28;20450;-82
2021/05/23 09:07:29;;;;;;;0.50;0.50;;;20.20;68.60;;;;;;5034889;28;20450;-82
2021/05/23 09:09:57;;;;;;;1.33;0.77;;;19.30;67.40;;;;;;5034139;28;20470;-82
2021/05/23 09:12:23;;;;;;;0.90;0.50;;;18.40;72.10;;;;;;5034564;28;20442;-82
2021/05/23 09:14:50;;;;;;;0.60;0.50;;;17.60;73.40;;;;;;5034829;28;20794;-82
2021/05/23 09:17:23;;;;;;;0.60;0.60;;;17.00;77.50;;;;;;5034725;28;20443;-81
2021/05/23 09:19:50;;;;;;;0.60;0.50;;;16.50;81.00;;;;;;5034599;28;20470;-81
2021/05/23 09:22:19;;;;;;;0.97;0.57;;;16.20;82.20;;;;;;5034665;28;20442;-81
2021/05/23 09:24:51;;;;;;;1.13;0.50;;;15.90;84.10;;;;;;5034770;28;20855;-81
2021/05/23 09:27:18;;;;;;;1.73;0.40;;;15.50;85.50;;;;;;5034501;28;20450;-80
2021/05/23 09:29:45;;;;;;;0.60;0.40;;;15.00;90.40;;;;;;5034380;28;20462;-81
2021/05/23 09:32:16;;;;;;;0.97;0.40;;;14.70;91.70;;;;;;5034422;28;20496;-81
2021/05/23 09:34:43;;;;;;;0.77;0.40;;;14.50;93.00;;;;;;5034328;28;20449;-81
2021/05/23 09:37:13;;;;;;;1.83;0.40;;;14.60;96.50;;;;;;5034024;28;20799;-81
2021/05/23 09:39:40;;;;;;;0.50;0.40;;;15.10;96.50;;;;;;5034202;28;20510;-81
2021/05/23 09:42:11;;;;;;;0.40;0.40;;;16.10;97.10;;;;;;5034238;28;20454;-82
2021/05/23 09:44:39;;;;;;;0.50;0.40;;;16.70;94.10;;;;;;5033391;28;20485;-81
2021/05/23 09:47:09;;;;;;;0.40;0.40;;;17.20;91.50;;;;;;5034184;28;20445;-81
2021/05/23 09:49:41;;;;;;;1.60;0.40;;;17.60;90.60;;;;;;5034041;28;20533;-81
2021/05/23 09:52:09;;;;;;;0.93;0.60;;;18.00;90.50;;;;;;5034043;28;20458;-81
2021/05/23 09:54:47;;;;;;;0.90;0.53;;;18.20;87.60;;;;;;5033948;28;20502;-81
2021/05/23 09:57:15;;;;;;;1.00;0.43;;;18.60;87.30;;;;;;5033999;28;20431;-81
2021/05/23 09:59:43;;;;;;;0.50;0.40;;;18.90;85.20;;;;;;5033860;28;20473;-81
2021/05/23 10:02:12;;;;;;;0.40;0.40;;;19.10;82.80;;;;;;5033865;28;20435;-81
2021/05/23 10:04:39;;;;;;;0.50;0.50;;;19.40;80.30;;;;;;5033543;28;20422;-81
2021/05/23 10:07:08;;;;;;;0.93;0.50;;;19.40;78.30;;;;;;5033836;28;20435;-81
2021/05/23 10:09:36;;;;;;;0.40;0.40;;;18.90;75.30;;;;;;5033678;28;20532;-81
2021/05/23 10:12:03;;;;;;;0.70;0.47;;;18.40;78.60;;;;;;5033760;28;20462;-82
2021/05/23 10:14:30;;;;;;;0.67;0.50;;;17.90;77.70;;;;;;5033303;28;20466;-81
2021/05/23 10:16:57;;;;;;;0.80;0.50;;;17.70;79.80;;;;;;5033686;28;20438;-81
2021/05/23 10:19:26;;;;;;;0.50;0.50;;;17.90;80.10;;;;;;5033529;28;20474;-81
2021/05/23 10:21:54;;;;;;;0.50;0.40;;;18.20;82.70;;;;;;5033480;28;20470;-81
2021/05/23 10:24:26;;;;;;;0.97;0.40;;;18.40;79.80;;;;;;5033549;28;20453;-81
2021/05/23 10:26:59;;;;;;;0.60;0.47;;;18.60;77.60;;;;;;5033640;28;20435;-81
2021/05/23 10:29:26;;;;;;;0.60;0.50;;;18.80;77.30;;;;;;5033183;28;21063;-82
2021/05/23 10:32:05;;;;;;;1.20;0.50;;;18.70;77.00;;;;;;5033631;28;20439;-81
2021/05/23 10:34:35;;;;;;;0.70;0.60;;;18.50;76.70;;;;;;5033511;28;20475;-81
2021/05/23 10:37:01;;;;;;;1.03;0.50;;;18.40;78.80;;;;;;5033594;28;20446;-82
2021/05/23 10:39:36;;;;;;;0.60;0.40;;;18.30;78.20;;;;;;5033661;28;20470;-81
2021/05/23 10:42:03;;;;;;;1.10;0.40;;;18.30;75.10;;;;;;5033362;28;20457;-80
2021/05/23 10:44:39;;;;;;;0.50;0.40;;;18.00;74.30;;;;;;5032968;28;20478;-81
2021/05/23 10:47:12;;;;;;;0.50;0.50;;;17.80;74.50;;;;;;5033051;28;20489;-81
2021/05/23 10:49:59;;;;;;;0.43;0.43;;;17.50;79.90;;;;;;5033359;28;20462;-81
2021/05/23 10:52:28;;;;;;;1.67;0.60;;;16.80;90.70;;;;;;5033005;28;20805;-81
2021/05/23 10:55:01;;;;;;;0.50;0.50;;;16.10;95.40;;;;;;5032954;28;20504;-82
2021/05/23 10:57:27;;;;;;;1.73;0.60;;;15.60;95.50;;;;;;5033244;28;20439;-81
2021/05/23 10:59:58;;;;;;;1.10;0.50;;;15.30;99.90;;;;;;5033190;28;20466;-81
2021/05/23 11:02:38;;;;;;;0.50;0.50;;;15.10;99.90;;;;;;5033210;28;20435;-82
2021/05/23 11:05:10;;;;;;;0.50;0.50;;;14.90;99.90;;;;;;5033216;28;20435;-81
2021/05/23 11:07:36;;;;;;;0.40;0.40;;;14.80;99.90;;;;;;5032929;28;20480;-81
2021/05/23 11:10:17;;;;;;;1.20;0.60;;;14.80;99.90;;;;;;5033028;28;20471;-79
2021/05/23 11:12:48;;;;;;;0.70;0.50;;;14.70;99.90;;;;;;5033506;28;20600;-82
2021/05/23 11:15:14;;;;;;;0.60;0.50;;;14.60;99.30;;;;;;5033074;28;20439;-80
2021/05/23 11:17:42;;;;;;;0.40;0.40;;;14.60;99.20;;;;;;5033045;28;20438;-81
2021/05/23 11:20:20;;;;;;;1.27;0.60;;;14.60;99.10;;;;;;5032650;28;20474;-81
2021/05/23 11:22:58;;;;;;;0.60;0.40;;;14.80;99.50;;;;;;5032992;28;20442;-81
2021/05/23 11:25:25;;;;;;;0.40;0.40;;;15.00;99.90;;;;;;5032766;28;20419;-81
2021/05/23 11:28:02;;;;;;;1.00;0.50;;;15.40;99.70;;;;;;5033186;28;20423;-81
2021/05/23 11:33:07;;;;;;;0.57;0.50;;;16.20;97.70;;;;;;5035497;22;20504;-78
2021/05/23 11:35:35;;;;;;;0.50;0.50;;;16.30;95.50;;;;;;5036302;28;20910;-78
2021/05/23 11:38:02;;;;;;;0.77;0.50;;;16.40;96.10;;;;;;5036318;28;20426;-78
2021/05/23 11:40:33;;;;;;;0.50;0.40;;;16.50;95.30;;;;;;5036490;28;20455;-78
2021/05/23 11:43:11;;;;;;;0.50;0.50;;;16.60;92.70;;;;;;5036548;28;20484;-77
2021/05/23 11:45:38;;;;;;;1.23;0.80;;;16.50;93.90;;;;;;5036487;28;20481;-77
2021/05/23 11:48:07;;;;;;;1.37;0.80;;;16.50;92.50;;;;;;5036410;28;20430;-77
2021/05/23 11:50:35;;;;;;;1.13;0.70;;;16.50;92.10;;;;;;5036282;28;20593;-78
2021/05/23 11:53:01;;;;;;;0.70;0.50;;;16.50;93.30;;;;;;5036074;28;20557;-78
2021/05/23 11:55:30;;;;;;;1.33;0.80;;;16.50;92.30;;;;;;5036324;28;20500;-78
2021/05/23 11:58:08;;;;;;;0.70;0.50;;;16.50;90.10;;;;;;5036423;28;20449;-78
2021/05/23 12:00:35;;;;;;;0.50;0.50;;;16.10;89.90;;;;;;5036111;28;20470;-78
2021/05/23 12:03:02;;;;;;;0.40;0.40;;;16.10;91.10;;;;;;5036068;28;20423;-78
2021/05/23 12:05:44;;;;;;;1.57;0.73;;;16.10;92.10;;;;;;5036370;28;20435;-77
2021/05/23 12:08:18;;;;;;;0.57;0.50;;;16.30;93.00;;;;;;5034035;28;20473;-78
2021/05/23 12:10:45;;;;;;;0.53;0.53;;;16.30;90.00;;;;;;5035666;28;20450;-78
2021/05/23 12:13:11;;;;;;;0.50;0.43;;;16.40;90.00;;;;;;5035824;28;20517;-78
2021/05/23 12:15:37;;;;;;;0.60;0.50;;;16.40;90.10;;;;;;5035895;28;20451;-77
2021/05/23 12:18:04;;;;;;;2.60;0.80;;;16.50;91.20;;;;;;5035536;28;20961;-78
2021/05/23 12:20:30;;;;;;;0.50;0.50;;;16.50;90.10;;;;;;5035748;28;20462;-78
2021/05/23 12:22:57;;;;;;;0.40;0.40;;;16.50;86.80;;;;;;5035788;28;20447;-78
2021/05/23 12:25:25;;;;;;;0.47;0.40;;;16.50;86.80;;;;;;5035475;28;20431;-78
2021/05/23 12:27:53;;;;;;;1.10;0.40;;;16.20;90.90;;;;;;5035629;28;20454;-78
2021/05/23 12:30:21;;;;;;;0.50;0.50;;;15.80;92.50;;;;;;5035547;28;20524;-77
2021/05/23 12:32:52;;;;;;;0.50;0.40;;;15.50;93.60;;;;;;5035362;28;20486;-78
2021/05/23 12:35:20;;;;;;;0.40;0.40;;;15.30;93.30;;;;;;5035578;28;20474;-78
2021/05/23 12:37:52;;;;;;;0.57;0.50;;;15.20;93.60;;;;;;5035241;28;20433;-77
2021/05/23 12:40:23;;;;;;;1.20;0.50;;;15.20;95.60;;;;;;5035392;28;20512;-79
2021/05/23 12:42:50;;;;;;;0.50;0.50;;;15.30;96.40;;;;;;5035441;28;20450;-78
2021/05/23 12:45:17;;;;;;;0.53;0.50;;;15.50;96.50;;;;;;5033651;28;20537;-78
2021/05/23 12:47:51;;;;;;;0.50;0.50;;;15.80;96.80;;;;;;5035325;28;20477;-78
2021/05/23 12:50:30;;;;;;;0.73;0.50;;;16.10;94.10;;;;;;5034992;28;20473;-78
2021/05/23 12:52:56;;;;;;;4.40;0.60;;;16.30;92.50;;;;;;5034926;28;20498;-78
2021/05/23 12:55:24;;;;;;;1.03;0.43;;;16.40;92.60;;;;;;5034885;28;20455;-78
2021/05/23 12:57:52;;;;;;;0.57;0.50;;;16.50;90.60;;;;;;5034812;28;20457;-78